Time;durP1;ratioP1;P1;durP2;ratioP2;P2;SDS_P1;SDS_P2;PMS_P1;PMS_P2;Temp;Humidity;BMP_temperature;BMP_pressure;BME280_temperature;BME280_humidity;BME280_pressure;Samples;Min_cycle;Max_cycle;Signal;HPM_P1;HPM_P2
2023/05/21 00:02:10;;;;;;;7.10;4.38;;;14.80;99.90;;;;;;5098953;28;20074;-58
2023/05/21 00:04:42;;;;;;;7.90;4.25;;;14.70;99.90;;;;;;5097112;28;20051;-58
2023/05/21 00:07:08;;;;;;;9.77;4.15;;;14.80;99.90;;;;;;5080944;28;20119;-57
2023/05/21 00:09:35;;;;;;;8.85;3.88;;;14.80;99.90;;;;;;5097247;28;20039;-58
2023/05/21 00:12:00;;;;;;;9.05;4.03;;;14.70;99.90;;;;;;5098970;28;20074;-58
2023/05/21 00:14:26;;;;;;;7.90;4.22;;;14.70;99.90;;;;;;5079864;28;20040;-58
2023/05/21 00:16:52;;;;;;;9.10;3.83;;;14.80;99.90;;;;;;5097968;28;20044;-58
2023/05/21 00:19:17;;;;;;;10.00;4.60;;;14.70;99.90;;;;;;5098905;28;20047;-58
2023/05/21 00:21:44;;;;;;;7.93;4.80;;;14.60;99.90;;;;;;5097192;28;20518;-58
2023/05/21 00:24:10;;;;;;;10.13;5.30;;;14.60;99.90;;;;;;5098916;28;20615;-58
2023/05/21 00:26:36;;;;;;;8.55;4.53;;;14.60;99.90;;;;;;5096839;28;20074;-58
2023/05/21 00:29:02;;;;;;;8.73;4.00;;;14.60;99.90;;;;;;5098981;28;20527;-58
2023/05/21 00:31:30;;;;;;;8.60;4.72;;;14.60;99.90;;;;;;5097379;28;20040;-58
2023/05/21 00:33:57;;;;;;;7.35;4.15;;;14.60;99.90;;;;;;5097532;28;20055;-58
2023/05/21 00:36:22;;;;;;;9.23;4.45;;;14.60;99.90;;;;;;5098422;28;20048;-58
2023/05/21 00:38:51;;;;;;;8.65;4.03;;;14.60;99.90;;;;;;5096950;28;20113;-58
2023/05/21 00:41:17;;;;;;;8.43;4.10;;;14.60;99.90;;;;;;5098701;28;20043;-58
2023/05/21 00:43:43;;;;;;;8.35;4.60;;;14.60;99.90;;;;;;5096664;28;20063;-58
2023/05/21 00:46:12;;;;;;;7.13;4.15;;;14.50;99.90;;;;;;5098537;28;20036;-58
2023/05/21 00:48:39;;;;;;;10.38;4.25;;;14.50;99.90;;;;;;5097593;28;20028;-58
2023/05/21 00:51:05;;;;;;;9.05;4.88;;;14.60;99.90;;;;;;5097596;28;20106;-57
2023/05/21 00:53:33;;;;;;;10.60;4.30;;;14.60;99.90;;;;;;5080078;28;20044;-58
2023/05/21 00:56:00;;;;;;;9.68;4.20;;;14.60;99.90;;;;;;5096574;28;20095;-57
2023/05/21 00:58:27;;;;;;;9.57;4.80;;;14.50;99.90;;;;;;5098594;28;20039;-58
2023/05/21 01:00:56;;;;;;;8.27;4.20;;;14.50;99.90;;;;;;5096523;28;20036;-58
2023/05/21 01:03:22;;;;;;;10.15;4.60;;;14.40;99.90;;;;;;5098282;28;20369;-58
2023/05/21 01:05:52;;;;;;;8.20;4.28;;;14.50;99.90;;;;;;5097592;28;20048;-58
2023/05/21 01:08:20;;;;;;;10.45;4.63;;;14.40;99.90;;;;;;5097205;28;20048;-58
2023/05/21 01:10:48;;;;;;;10.02;4.68;;;14.40;99.90;;;;;;5098156;28;20048;-58
2023/05/21 01:13:15;;;;;;;8.70;4.15;;;14.30;99.90;;;;;;5100027;28;20048;-58
2023/05/21 01:15:44;;;;;;;10.05;4.45;;;14.30;99.90;;;;;;5102536;28;20048;-58
2023/05/21 01:18:13;;;;;;;8.65;5.15;;;14.30;99.90;;;;;;5100789;28;20166;-58
2023/05/21 01:20:41;;;;;;;8.05;4.18;;;14.30;99.90;;;;;;5101935;28;20323;-58
2023/05/21 01:23:07;;;;;;;7.15;4.30;;;14.30;99.90;;;;;;5101485;28;20083;-58
2023/05/21 01:25:33;;;;;;;8.73;4.50;;;14.30;99.90;;;;;;5100832;28;20044;-58
2023/05/21 01:27:59;;;;;;;8.80;4.72;;;14.40;99.90;;;;;;5102036;28;20083;-58
2023/05/21 01:30:25;;;;;;;10.77;5.40;;;14.30;99.90;;;;;;5099955;28;20059;-58
2023/05/21 01:33:37;;;;;;;11.23;5.40;;;14.30;99.90;;;;;;5102192;28;20174;-58
2023/05/21 01:36:25;;;;;;;9.48;5.60;;;14.30;99.90;;;;;;5045655;28;20113;-59
2023/05/21 01:39:00;;;;;;;9.95;5.97;;;14.30;99.90;;;;;;5100054;28;20107;-57
2023/05/21 01:41:30;;;;;;;12.23;5.90;;;14.30;99.90;;;;;;5102128;28;20043;-58
2023/05/21 01:43:56;;;;;;;11.25;5.70;;;14.30;99.90;;;;;;5099912;28;20048;-58
2023/05/21 01:46:27;;;;;;;11.07;6.57;;;14.30;99.90;;;;;;5101503;28;20047;-58
2023/05/21 01:48:55;;;;;;;12.40;6.60;;;14.40;99.90;;;;;;5101172;28;20044;-58
2023/05/21 01:51:22;;;;;;;12.57;7.05;;;14.40;99.90;;;;;;5100309;28;20142;-58
2023/05/21 01:53:48;;;;;;;13.73;7.20;;;14.30;99.90;;;;;;5101716;28;20046;-58
2023/05/21 01:56:14;;;;;;;13.43;7.07;;;14.30;99.90;;;;;;5099367;28;20055;-58
2023/05/21 01:58:40;;;;;;;15.43;7.20;;;14.20;99.90;;;;;;5101754;28;20051;-57
2023/05/21 02:01:07;;;;;;;11.88;7.45;;;14.20;99.90;;;;;;5099705;28;20040;-58
2023/05/21 02:03:33;;;;;;;13.82;7.72;;;14.20;99.90;;;;;;5082840;28;20474;-58
2023/05/21 02:05:58;;;;;;;15.20;7.40;;;14.10;99.90;;;;;;5100741;28;20122;-58
2023/05/21 02:08:26;;;;;;;16.38;6.80;;;14.20;99.90;;;;;;5099774;28;20066;-57
2023/05/21 02:10:51;;;;;;;13.18;7.15;;;14.00;99.90;;;;;;5100931;28;20051;-57
2023/05/21 02:13:21;;;;;;;14.90;7.50;;;14.00;99.90;;;;;;5099535;28;20032;-57
2023/05/21 02:15:47;;;;;;;16.20;7.80;;;14.20;99.90;;;;;;5101321;28;20054;-57
2023/05/21 02:18:15;;;;;;;13.93;7.97;;;14.00;99.90;;;;;;5099672;28;20040;-57
2023/05/21 02:20:42;;;;;;;11.38;7.07;;;13.90;99.90;;;;;;5100777;28;20050;-57
2023/05/21 02:23:08;;;;;;;13.32;7.72;;;14.00;99.90;;;;;;5099262;28;20072;-56
2023/05/21 02:25:33;;;;;;;13.38;7.57;;;14.00;99.90;;;;;;5099237;28;20098;-57
2023/05/21 02:27:59;;;;;;;14.02;7.38;;;14.10;99.90;;;;;;5100855;28;20072;-56
2023/05/21 02:30:25;;;;;;;15.50;7.28;;;14.10;99.90;;;;;;5098613;28;20539;-57
2023/05/21 02:32:51;;;;;;;15.30;7.65;;;14.00;99.90;;;;;;5100902;28;20127;-57
2023/05/21 02:35:17;;;;;;;14.68;6.80;;;14.10;99.90;;;;;;5098874;28;20052;-57
2023/05/21 02:37:43;;;;;;;15.77;7.60;;;14.00;99.90;;;;;;5100648;28;20067;-57
2023/05/21 02:40:09;;;;;;;13.82;7.07;;;14.10;99.90;;;;;;5099821;28;20079;-57
2023/05/21 02:42:38;;;;;;;14.52;7.53;;;13.80;99.90;;;;;;5099383;28;20399;-56
2023/05/21 02:45:05;;;;;;;11.20;7.25;;;13.70;99.90;;;;;;5100524;28;20052;-57
2023/05/21 02:47:31;;;;;;;11.40;6.78;;;13.70;99.90;;;;;;5098633;28;20048;-57
2023/05/21 02:49:58;;;;;;;14.48;8.02;;;13.70;99.90;;;;;;5100864;28;21036;-57
2023/05/21 02:52:24;;;;;;;12.23;6.82;;;13.70;99.90;;;;;;5098474;28;20450;-57
2023/05/21 02:54:50;;;;;;;14.05;7.30;;;13.50;99.90;;;;;;5100069;28;20058;-57
2023/05/21 02:57:17;;;;;;;13.73;7.05;;;13.60;99.90;;;;;;5099650;28;20044;-57
2023/05/21 02:59:43;;;;;;;13.75;7.25;;;13.60;99.90;;;;;;5098929;28;20107;-57
2023/05/21 03:02:09;;;;;;;18.98;8.73;;;13.50;99.90;;;;;;5100224;28;20114;-56
2023/05/21 03:04:37;;;;;;;12.82;6.97;;;13.70;99.90;;;;;;5098164;28;20048;-57
2023/05/21 03:07:04;;;;;;;12.32;6.80;;;13.50;99.90;;;;;;5100289;28;20070;-57
2023/05/21 03:09:30;;;;;;;12.00;6.97;;;13.40;99.90;;;;;;5098159;28;20087;-57
2023/05/21 03:11:55;;;;;;;13.02;7.90;;;13.50;99.90;;;;;;5100198;28;20055;-57
2023/05/21 03:14:23;;;;;;;12.82;7.82;;;13.50;99.90;;;;;;5099223;28;20036;-57
2023/05/21 03:16:50;;;;;;;12.65;7.43;;;13.50;99.90;;;;;;5098829;28;20080;-57
2023/05/21 03:19:15;;;;;;;13.30;6.97;;;13.50;99.90;;;;;;5081699;28;20500;-57
2023/05/21 03:21:41;;;;;;;15.52;7.88;;;13.50;99.90;;;;;;5097904;28;20066;-57
2023/05/21 03:24:08;;;;;;;14.80;8.40;;;13.60;99.90;;;;;;5100043;28;20040;-57
2023/05/21 03:26:34;;;;;;;16.60;8.55;;;13.50;99.90;;;;;;5079658;28;20040;-56
2023/05/21 03:29:00;;;;;;;13.57;7.63;;;13.50;99.90;;;;;;5099856;28;20043;-57
2023/05/21 03:31:26;;;;;;;13.98;8.18;;;13.50;99.90;;;;;;5080000;28;20048;-57
2023/05/21 03:33:52;;;;;;;14.20;8.20;;;13.50;99.90;;;;;;5098319;28;20050;-57
2023/05/21 03:36:19;;;;;;;16.90;8.63;;;13.50;99.90;;;;;;5080631;28;20051;-57
2023/05/21 03:38:44;;;;;;;14.57;7.70;;;13.60;99.90;;;;;;5097794;28;20054;-57
2023/05/21 03:41:10;;;;;;;14.10;7.20;;;13.50;99.90;;;;;;5099592;28;20109;-57
2023/05/21 03:43:36;;;;;;;14.77;7.78;;;13.40;99.90;;;;;;5097547;28;20032;-57
2023/05/21 03:46:02;;;;;;;13.10;7.57;;;13.50;99.90;;;;;;5099492;28;20048;-57
2023/05/21 03:48:28;;;;;;;13.88;6.88;;;13.40;99.90;;;;;;5097964;28;20127;-57
2023/05/21 03:50:54;;;;;;;12.18;6.97;;;13.50;99.90;;;;;;5098378;28;20414;-57
2023/05/21 03:53:20;;;;;;;15.05;6.78;;;13.60;99.90;;;;;;5099079;28;20063;-57
2023/05/21 03:55:46;;;;;;;11.57;6.72;;;13.40;99.90;;;;;;5097516;28;20491;-57
2023/05/21 03:58:11;;;;;;;11.68;7.07;;;13.60;99.90;;;;;;5099495;28;20623;-57
2023/05/21 04:00:37;;;;;;;13.30;6.28;;;13.40;99.90;;;;;;5096883;28;20051;-58
2023/05/21 04:03:03;;;;;;;12.80;6.20;;;13.40;99.90;;;;;;5099546;28;20040;-57
2023/05/21 04:05:29;;;;;;;13.00;5.88;;;13.50;99.90;;;;;;5097617;28;20569;-57
2023/05/21 04:07:54;;;;;;;13.27;5.65;;;13.40;99.90;;;;;;5098812;28;20571;-57
2023/05/21 04:10:21;;;;;;;13.68;6.07;;;13.50;99.90;;;;;;5098387;28;20448;-57
2023/05/21 04:12:51;;;;;;;13.10;6.20;;;13.50;99.90;;;;;;5097783;28;20479;-57
2023/05/21 04:15:20;;;;;;;10.85;6.38;;;13.50;99.90;;;;;;5099020;28;20404;-57
2023/05/21 04:17:46;;;;;;;12.85;6.20;;;13.40;99.90;;;;;;5078895;28;20058;-57
2023/05/21 04:20:12;;;;;;;11.73;5.60;;;13.40;99.90;;;;;;5098743;28;20071;-57
2023/05/21 04:22:38;;;;;;;10.32;6.03;;;13.40;99.90;;;;;;5097410;28;20590;-57
2023/05/21 04:25:05;;;;;;;13.25;5.32;;;13.50;99.90;;;;;;5098108;28;20092;-58
2023/05/21 04:27:30;;;;;;;13.10;6.15;;;13.50;99.90;;;;;;5098128;28;20126;-57
2023/05/21 04:29:56;;;;;;;13.10;5.68;;;13.50;99.90;;;;;;5097054;28;20036;-57
2023/05/21 04:32:22;;;;;;;12.00;5.82;;;13.50;99.90;;;;;;5098666;28;20048;-57
2023/05/21 04:34:48;;;;;;;12.35;5.30;;;13.60;99.90;;;;;;5096411;28;20079;-57
2023/05/21 04:37:16;;;;;;;13.60;5.80;;;13.60;99.90;;;;;;5099003;28;20043;-57
2023/05/21 04:39:42;;;;;;;11.80;4.72;;;13.70;99.90;;;;;;5096913;28;20052;-57
2023/05/21 04:42:11;;;;;;;10.73;5.45;;;13.80;99.90;;;;;;5098091;28;20423;-57
2023/05/21 04:44:39;;;;;;;11.32;4.93;;;13.80;99.90;;;;;;5097915;28;20042;-57
2023/05/21 04:47:06;;;;;;;15.25;5.38;;;13.80;99.90;;;;;;5080484;28;20123;-57
2023/05/21 04:49:33;;;;;;;14.27;5.20;;;13.80;99.90;;;;;;5102929;28;20032;-58
2023/05/21 04:52:00;;;;;;;12.73;5.13;;;13.80;99.90;;;;;;5100994;28;20148;-57
2023/05/21 04:54:26;;;;;;;12.75;4.72;;;13.80;99.90;;;;;;5102982;28;20040;-57
2023/05/21 04:56:52;;;;;;;13.38;4.82;;;13.80;99.90;;;;;;5101218;28;20040;-57
2023/05/21 04:59:18;;;;;;;11.57;4.80;;;13.90;99.90;;;;;;5102118;28;20044;-57
2023/05/21 05:01:44;;;;;;;9.85;4.93;;;14.00;99.90;;;;;;5066955;28;20050;-57
2023/05/21 05:04:10;;;;;;;12.55;5.00;;;14.10;99.90;;;;;;5100890;28;20064;-57
2023/05/21 05:06:35;;;;;;;14.77;5.50;;;14.10;99.90;;;;;;5084267;28;20044;-57
2023/05/21 05:09:01;;;;;;;11.65;4.88;;;14.10;99.90;;;;;;5100704;28;20036;-57
2023/05/21 05:11:27;;;;;;;11.20;5.10;;;14.10;99.90;;;;;;5102503;28;20046;-57
2023/05/21 05:13:52;;;;;;;12.38;4.72;;;14.00;99.90;;;;;;5100670;28;20052;-57
2023/05/21 05:16:23;;;;;;;13.05;5.75;;;14.10;99.90;;;;;;5101961;28;20127;-57
2023/05/21 05:18:51;;;;;;;10.35;4.45;;;14.10;99.90;;;;;;5101773;28;20523;-57
2023/05/21 05:21:17;;;;;;;14.52;5.15;;;14.10;99.90;;;;;;5100882;28;20062;-57
2023/05/21 05:23:42;;;;;;;14.40;5.68;;;14.10;99.90;;;;;;5102406;28;20040;-57
2023/05/21 05:26:10;;;;;;;13.35;5.28;;;14.00;99.90;;;;;;5100216;28;20040;-58
2023/05/21 05:28:35;;;;;;;12.30;5.22;;;14.00;99.90;;;;;;5102208;28;20036;-57
2023/05/21 05:31:01;;;;;;;14.93;5.53;;;14.10;99.90;;;;;;5099913;28;20070;-57
2023/05/21 05:33:27;;;;;;;12.70;5.25;;;14.10;99.90;;;;;;5101712;28;20097;-57
2023/05/21 05:35:52;;;;;;;10.77;4.90;;;14.20;99.90;;;;;;5101073;28;20055;-56
2023/05/21 05:38:18;;;;;;;13.65;5.45;;;14.20;99.90;;;;;;5100674;28;20136;-56
2023/05/21 05:40:44;;;;;;;13.77;6.43;;;14.20;99.90;;;;;;5101874;28;20412;-57
2023/05/21 05:43:09;;;;;;;13.20;6.20;;;14.30;99.90;;;;;;5065314;28;20065;-57
2023/05/21 05:45:35;;;;;;;12.18;6.38;;;14.10;99.90;;;;;;5083494;28;20060;-57
2023/05/21 05:48:01;;;;;;;12.80;6.50;;;14.30;99.90;;;;;;5099868;28;20067;-57
2023/05/21 05:50:27;;;;;;;11.82;5.45;;;14.40;99.90;;;;;;5101622;28;20127;-57
2023/05/21 05:52:52;;;;;;;11.07;4.55;;;14.40;99.90;;;;;;5100805;28;20409;-57
2023/05/21 05:55:18;;;;;;;10.48;4.63;;;14.40;99.90;;;;;;5100570;28;20047;-57
2023/05/21 05:57:44;;;;;;;10.55;4.63;;;14.40;99.90;;;;;;5100994;28;20582;-57
2023/05/21 06:00:10;;;;;;;12.50;5.65;;;14.60;99.90;;;;;;5099448;28;20040;-57
2023/05/21 06:02:36;;;;;;;8.60;4.35;;;14.60;99.90;;;;;;5101436;28;20067;-57
2023/05/21 06:05:02;;;;;;;11.52;4.68;;;14.70;99.90;;;;;;5099472;28;20052;-57
2023/05/21 06:07:28;;;;;;;12.50;4.68;;;14.80;99.90;;;;;;5101365;28;20044;-58
2023/05/21 06:09:54;;;;;;;12.65;5.15;;;14.60;99.90;;;;;;5099987;28;20046;-57
2023/05/21 06:12:20;;;;;;;10.10;4.60;;;14.90;99.90;;;;;;5100321;28;20496;-58
2023/05/21 06:14:47;;;;;;;11.52;4.60;;;14.80;99.90;;;;;;5082323;28;20052;-57
2023/05/21 06:17:13;;;;;;;12.05;4.80;;;14.80;99.90;;;;;;5099396;28;20044;-56
2023/05/21 06:19:39;;;;;;;10.02;3.80;;;14.80;99.90;;;;;;5082965;28;20115;-57
2023/05/21 06:22:05;;;;;;;12.13;4.32;;;14.80;99.90;;;;;;5099324;28;20224;-57
2023/05/21 06:24:31;;;;;;;9.82;3.95;;;14.80;99.90;;;;;;5101098;28;20040;-56
2023/05/21 06:26:56;;;;;;;12.35;4.47;;;14.90;99.90;;;;;;5099764;28;20043;-57
2023/05/21 06:29:22;;;;;;;9.43;4.47;;;15.00;99.90;;;;;;5099949;28;20295;-57
2023/05/21 06:31:48;;;;;;;11.43;4.75;;;15.10;99.90;;;;;;5100426;28;20044;-57
2023/05/21 06:34:13;;;;;;;11.35;4.03;;;15.20;99.90;;;;;;5098706;28;20079;-57
2023/05/21 06:36:39;;;;;;;8.93;4.80;;;15.30;99.90;;;;;;5100640;28;20062;-57
2023/05/21 06:39:05;;;;;;;10.02;4.50;;;15.50;99.90;;;;;;5099049;28;20062;-57
2023/05/21 06:41:31;;;;;;;11.15;4.65;;;15.60;99.90;;;;;;5101098;28;20659;-57
2023/05/21 06:43:57;;;;;;;15.68;4.28;;;15.60;99.90;;;;;;5099291;28;20548;-57
2023/05/21 06:46:22;;;;;;;12.55;4.45;;;15.80;99.90;;;;;;5100282;28;20052;-57
2023/05/21 06:48:48;;;;;;;10.38;4.60;;;15.90;99.90;;;;;;5100149;28;20048;-57
2023/05/21 06:51:14;;;;;;;8.95;4.10;;;15.90;99.90;;;;;;5098948;28;20051;-57
2023/05/21 06:53:40;;;;;;;11.55;5.03;;;15.80;99.90;;;;;;5100440;28;20040;-57
2023/05/21 06:56:05;;;;;;;10.15;4.03;;;15.80;99.90;;;;;;5098638;28;20080;-57
2023/05/21 06:58:31;;;;;;;13.27;4.60;;;15.90;99.90;;;;;;5065742;28;20103;-57
2023/05/21 07:00:58;;;;;;;9.63;3.92;;;15.90;99.90;;;;;;5098474;28;20040;-57
2023/05/21 07:03:24;;;;;;;10.23;4.00;;;15.90;99.90;;;;;;5100043;28;20475;-57
2023/05/21 07:05:49;;;;;;;10.00;4.13;;;15.90;99.90;;;;;;5081397;28;20472;-57
2023/05/21 07:08:15;;;;;;;9.82;3.95;;;15.80;99.90;;;;;;5080480;28;20044;-57
2023/05/21 07:10:41;;;;;;;9.18;3.85;;;15.90;99.90;;;;;;5099520;28;20036;-57
2023/05/21 07:13:07;;;;;;;11.48;4.30;;;16.10;99.90;;;;;;5097987;28;20099;-57
2023/05/21 07:15:32;;;;;;;9.35;4.30;;;16.10;99.90;;;;;;5100423;28;20055;-57
2023/05/21 07:17:58;;;;;;;13.13;4.72;;;16.00;99.90;;;;;;5098140;28;20089;-57
2023/05/21 07:20:24;;;;;;;8.75;3.88;;;15.80;99.90;;;;;;5099927;28;20074;-57
2023/05/21 07:22:50;;;;;;;8.18;4.18;;;15.90;99.90;;;;;;5099034;28;20050;-57
2023/05/21 07:25:15;;;;;;;9.80;4.00;;;15.90;99.90;;;;;;5098632;28;20262;-57
2023/05/21 07:27:41;;;;;;;13.73;4.50;;;16.00;99.90;;;;;;5081277;28;20059;-57
2023/05/21 07:30:08;;;;;;;9.95;4.05;;;16.00;99.90;;;;;;5079443;28;20051;-58
2023/05/21 07:32:34;;;;;;;9.75;4.10;;;15.90;99.90;;;;;;5099944;28;20035;-57
2023/05/21 07:35:03;;;;;;;8.07;3.63;;;16.00;99.90;;;;;;5097553;28;20048;-56
2023/05/21 07:37:28;;;;;;;10.30;4.22;;;16.00;99.90;;;;;;5099970;28;20051;-57
2023/05/21 07:39:57;;;;;;;8.85;3.63;;;16.00;99.90;;;;;;5098514;28;20044;-57
2023/05/21 07:42:24;;;;;;;13.00;4.05;;;15.90;99.90;;;;;;5098511;28;20067;-57
2023/05/21 07:44:49;;;;;;;10.82;4.82;;;15.80;99.90;;;;;;5099260;28;20042;-57
2023/05/21 07:47:15;;;;;;;9.02;4.20;;;15.80;99.90;;;;;;5097472;28;20056;-57
2023/05/21 07:49:41;;;;;;;11.18;3.90;;;15.80;99.90;;;;;;5081299;28;20040;-57
2023/05/21 07:52:06;;;;;;;10.90;3.63;;;15.90;99.90;;;;;;5097483;28;20059;-57
2023/05/21 07:54:32;;;;;;;11.45;4.00;;;16.00;99.90;;;;;;5099269;28;20476;-57
2023/05/21 07:56:58;;;;;;;8.63;3.63;;;16.00;99.90;;;;;;5098165;28;20044;-57
2023/05/21 07:59:24;;;;;;;10.05;3.55;;;16.10;99.90;;;;;;5098367;28;20503;-57
2023/05/21 08:01:50;;;;;;;7.38;3.30;;;16.30;99.90;;;;;;5098822;28;20095;-57
2023/05/21 08:04:16;;;;;;;10.23;3.40;;;16.30;99.90;;;;;;5097487;28;20048;-56
2023/05/21 08:06:41;;;;;;;8.52;3.67;;;16.10;99.90;;;;;;5099390;28;20060;-57
2023/05/21 08:09:07;;;;;;;7.72;3.33;;;16.20;99.90;;;;;;5096866;28;20071;-57
2023/05/21 08:11:33;;;;;;;10.80;3.33;;;16.20;99.90;;;;;;5099319;28;20051;-57
2023/05/21 08:13:58;;;;;;;11.65;4.55;;;16.40;99.90;;;;;;5097666;28;20036;-56
2023/05/21 08:16:24;;;;;;;10.30;4.00;;;16.40;99.90;;;;;;5098468;28;20039;-57
2023/05/21 08:18:50;;;;;;;11.65;3.50;;;16.40;99.90;;;;;;5098535;28;20484;-57
2023/05/21 08:21:16;;;;;;;8.65;3.35;;;16.60;99.90;;;;;;5097346;28;20426;-57
2023/05/21 08:23:42;;;;;;;10.40;3.85;;;16.70;99.90;;;;;;5098688;28;20091;-57
2023/05/21 08:26:08;;;;;;;9.63;3.72;;;16.70;99.90;;;;;;5096738;28;20051;-57
2023/05/21 08:28:37;;;;;;;11.88;3.95;;;16.60;99.90;;;;;;5099256;28;20048;-57
2023/05/21 08:31:03;;;;;;;8.18;3.63;;;16.50;99.90;;;;;;5097039;28;20137;-57
2023/05/21 08:33:29;;;;;;;9.10;3.38;;;16.60;99.90;;;;;;5098322;28;20059;-57
2023/05/21 08:35:55;;;;;;;12.75;3.47;;;16.70;99.90;;;;;;5079824;28;20060;-57
2023/05/21 08:38:20;;;;;;;10.10;3.65;;;16.90;99.90;;;;;;5096853;28;20051;-57
2023/05/21 08:40:49;;;;;;;10.43;3.60;;;16.90;99.90;;;;;;5098764;28;20054;-57
2023/05/21 08:43:16;;;;;;;8.85;3.70;;;16.90;99.90;;;;;;5096745;28;20043;-55
2023/05/21 08:45:46;;;;;;;11.02;3.33;;;16.90;99.90;;;;;;5098867;28;20051;-57
2023/05/21 08:48:15;;;;;;;9.73;3.47;;;17.10;99.90;;;;;;5097277;28;20036;-57
2023/05/21 08:50:42;;;;;;;9.20;3.63;;;17.40;99.90;;;;;;5098107;28;20396;-57
2023/05/21 08:53:08;;;;;;;7.28;3.60;;;17.20;99.90;;;;;;5097931;28;20036;-57
2023/05/21 08:55:35;;;;;;;8.27;3.92;;;17.40;99.90;;;;;;5096904;28;20039;-57
2023/05/21 08:58:03;;;;;;;8.65;3.53;;;17.50;99.90;;;;;;5098672;28;20058;-57
2023/05/21 09:00:28;;;;;;;6.90;3.20;;;17.50;99.90;;;;;;5096296;28;20114;-57
2023/05/21 09:02:54;;;;;;;8.93;3.40;;;17.50;99.90;;;;;;5098773;28;20036;-57
2023/05/21 09:05:22;;;;;;;10.45;3.55;;;17.50;99.90;;;;;;5096671;28;20040;-56
2023/05/21 09:08:05;;;;;;;11.27;3.70;;;17.50;99.90;;;;;;5097970;28;20036;-57
2023/05/21 09:10:49;;;;;;;9.45;4.05;;;17.70;99.90;;;;;;5098146;28;20040;-57
2023/05/21 09:13:16;;;;;;;9.20;3.78;;;17.60;99.90;;;;;;5096341;28;20044;-57
2023/05/21 09:15:43;;;;;;;9.02;3.42;;;17.60;99.90;;;;;;5063713;28;20047;-57
2023/05/21 09:18:09;;;;;;;10.88;3.83;;;17.80;99.90;;;;;;5096537;28;20036;-57
2023/05/21 09:20:35;;;;;;;11.90;4.13;;;17.70;99.90;;;;;;5098096;28;20127;-58
2023/05/21 09:23:05;;;;;;;10.45;4.20;;;17.50;99.90;;;;;;5097850;28;20073;-57
2023/05/21 09:25:32;;;;;;;9.20;3.85;;;17.70;99.90;;;;;;5096774;28;20659;-57
2023/05/21 09:28:00;;;;;;;9.48;4.07;;;17.70;99.90;;;;;;5098021;28;20403;-58
2023/05/21 09:30:26;;;;;;;9.25;3.75;;;17.60;99.90;;;;;;5095623;28;20060;-57
2023/05/21 09:32:57;;;;;;;10.77;3.97;;;17.70;99.90;;;;;;5099623;28;20058;-57
2023/05/21 09:35:23;;;;;;;10.85;4.53;;;17.80;99.90;;;;;;5100389;28;20068;-57
2023/05/21 09:37:51;;;;;;;10.10;4.20;;;17.90;99.90;;;;;;5101404;28;20051;-57
2023/05/21 09:40:21;;;;;;;8.90;3.97;;;17.90;99.90;;;;;;5101018;28;20048;-57
2023/05/21 09:42:50;;;;;;;9.05;3.47;;;17.80;99.90;;;;;;5100245;28;20580;-58
2023/05/21 09:45:23;;;;;;;8.00;4.25;;;17.70;99.90;;;;;;5101544;28;20060;-57
2023/05/21 09:47:50;;;;;;;8.88;3.45;;;18.00;99.90;;;;;;5099615;28;20091;-57
2023/05/21 09:50:23;;;;;;;8.38;4.03;;;18.00;99.90;;;;;;5083671;28;20052;-57
2023/05/21 09:52:51;;;;;;;11.82;3.72;;;17.90;99.90;;;;;;5100780;28;20040;-57
2023/05/21 09:55:18;;;;;;;11.00;3.72;;;18.10;99.90;;;;;;5081969;28;20040;-57
2023/05/21 09:57:45;;;;;;;7.53;3.50;;;18.00;99.90;;;;;;5101088;28;20040;-56
2023/05/21 10:00:23;;;;;;;10.57;3.67;;;17.90;99.90;;;;;;5099065;28;20558;-56
2023/05/21 10:02:54;;;;;;;9.13;4.78;;;18.00;99.90;;;;;;5101712;28;20052;-57
2023/05/21 10:05:24;;;;;;;9.18;4.00;;;18.00;99.90;;;;;;5081377;28;20051;-56
2023/05/21 10:07:51;;;;;;;9.98;4.70;;;18.10;99.90;;;;;;5100594;28;20090;-57
2023/05/21 10:10:20;;;;;;;10.65;3.67;;;17.90;99.90;;;;;;5100779;28;20075;-56
2023/05/21 10:12:50;;;;;;;8.13;3.78;;;18.20;99.90;;;;;;5099555;28;20072;-56
2023/05/21 10:15:21;;;;;;;8.57;3.60;;;18.10;99.90;;;;;;5101578;28;20498;-57
2023/05/21 10:17:48;;;;;;;7.15;3.05;;;18.20;99.90;;;;;;5099270;28;20036;-56
2023/05/21 10:20:14;;;;;;;12.23;4.10;;;18.10;99.90;;;;;;5101507;28;20040;-56
2023/05/21 10:22:40;;;;;;;7.50;3.50;;;18.30;99.90;;;;;;5099722;28;20134;-57
2023/05/21 10:25:07;;;;;;;9.75;3.78;;;18.40;99.90;;;;;;5100201;28;20052;-57
2023/05/21 10:27:36;;;;;;;12.27;4.18;;;18.40;99.90;;;;;;5100574;28;20048;-57
2023/05/21 10:30:04;;;;;;;7.53;3.50;;;18.30;99.90;;;;;;5098952;28;20101;-56
2023/05/21 10:32:31;;;;;;;9.43;3.88;;;18.30;99.90;;;;;;5082715;28;20040;-56
2023/05/21 10:34:57;;;;;;;12.07;3.50;;;18.40;99.90;;;;;;5098830;28;20098;-57
2023/05/21 10:37:26;;;;;;;8.65;3.88;;;18.50;99.90;;;;;;5100938;28;20044;-57
2023/05/21 10:39:55;;;;;;;9.13;4.28;;;18.60;99.90;;;;;;5064830;28;20047;-57
2023/05/21 10:42:30;;;;;;;9.50;3.75;;;18.40;99.90;;;;;;5099413;28;20058;-58
2023/05/21 10:45:11;;;;;;;9.20;3.58;;;18.70;99.90;;;;;;5099303;28;20161;-57
2023/05/21 10:48:05;;;;;;;10.43;3.85;;;18.60;99.90;;;;;;5098723;28;20047;-57
2023/05/21 10:50:46;;;;;;;8.70;3.50;;;18.80;99.90;;;;;;5099923;28;20495;-57
2023/05/21 10:53:15;;;;;;;9.98;3.33;;;19.10;99.90;;;;;;5100123;28;20091;-57
2023/05/21 10:56:14;;;;;;;11.98;4.10;;;19.00;99.90;;;;;;5098654;28;20032;-57
2023/05/21 10:59:05;;;;;;;7.45;3.05;;;18.90;99.90;;;;;;5082163;28;20119;-57
2023/05/21 11:01:35;;;;;;;9.30;3.60;;;18.90;99.90;;;;;;5099631;28;20082;-56
2023/05/21 11:04:02;;;;;;;7.97;3.40;;;18.70;99.90;;;;;;5098685;28;20040;-57
2023/05/21 11:06:28;;;;;;;9.95;3.42;;;18.70;99.90;;;;;;5099928;28;20050;-57
2023/05/21 11:08:54;;;;;;;11.35;3.80;;;18.60;99.90;;;;;;5098372;28;20422;-56
2023/05/21 11:11:42;;;;;;;8.30;3.58;;;18.40;99.90;;;;;;5100334;28;20145;-56
2023/05/21 11:14:39;;;;;;;10.35;3.80;;;18.60;99.90;;;;;;5099402;28;20048;-56
2023/05/21 11:17:40;;;;;;;9.27;3.88;;;18.60;99.90;;;;;;5098280;28;20032;-56
2023/05/21 11:20:15;;;;;;;13.75;3.88;;;18.90;99.90;;;;;;5100144;28;20067;-57
2023/05/21 11:22:41;;;;;;;8.68;3.97;;;18.80;99.90;;;;;;5098989;28;20056;-56
2023/05/21 11:25:07;;;;;;;8.90;3.80;;;18.90;99.90;;;;;;5098620;28;20106;-57
2023/05/21 11:27:36;;;;;;;9.43;4.05;;;18.90;99.90;;;;;;5099696;28;20087;-57
2023/05/21 11:30:07;;;;;;;9.85;3.72;;;19.00;99.90;;;;;;5097673;28;20403;-57
2023/05/21 11:32:38;;;;;;;8.77;4.23;;;19.10;99.90;;;;;;5100008;28;20476;-56
2023/05/21 11:35:04;;;;;;;12.75;4.78;;;19.00;99.90;;;;;;5097933;28;20108;-56
2023/05/21 11:37:32;;;;;;;10.93;4.53;;;18.70;99.90;;;;;;5099349;28;20096;-56
2023/05/21 11:40:15;;;;;;;8.77;4.50;;;18.60;99.90;;;;;;5098930;28;20149;-57
2023/05/21 11:42:42;;;;;;;11.32;4.60;;;18.50;99.90;;;;;;5097903;28;20036;-56
2023/05/21 11:45:09;;;;;;;10.68;4.72;;;18.60;99.90;;;;;;5099517;28;20067;-57
2023/05/21 11:47:35;;;;;;;9.95;4.63;;;18.80;99.90;;;;;;5097302;28;20048;-57
2023/05/21 11:50:02;;;;;;;13.43;4.40;;;19.00;99.90;;;;;;5099508;28;20070;-56
2023/05/21 11:52:31;;;;;;;11.07;4.63;;;19.00;99.90;;;;;;5098110;28;20047;-56
2023/05/21 11:54:58;;;;;;;12.68;4.72;;;19.20;99.90;;;;;;5098553;28;20044;-57
2023/05/21 11:57:30;;;;;;;9.05;4.40;;;18.90;99.90;;;;;;5098747;28;20451;-57
2023/05/21 11:59:58;;;;;;;10.52;4.72;;;19.10;99.90;;;;;;5097156;28;20062;-57
2023/05/21 12:02:28;;;;;;;11.13;5.07;;;19.30;99.90;;;;;;5099335;28;20055;-57
2023/05/21 12:04:58;;;;;;;10.75;5.38;;;18.90;99.90;;;;;;5097254;28;20040;-57
2023/05/21 12:07:29;;;;;;;11.13;5.68;;;19.10;99.90;;;;;;5099130;28;20081;-57
2023/05/21 12:09:56;;;;;;;9.27;4.88;;;19.20;99.90;;;;;;5098418;28;20044;-57
2023/05/21 12:12:24;;;;;;;12.40;5.25;;;19.20;99.90;;;;;;5097266;28;20042;-57
2023/05/21 12:14:51;;;;;;;15.00;7.00;;;19.40;99.90;;;;;;5098742;28;20040;-57
2023/05/21 12:17:19;;;;;;;11.63;5.82;;;19.50;99.90;;;;;;5096869;28;20039;-57
2023/05/21 12:19:45;;;;;;;13.63;6.07;;;19.30;99.90;;;;;;5099138;28;20032;-57
2023/05/21 12:22:11;;;;;;;10.10;6.15;;;19.30;99.90;;;;;;5079038;28;20056;-57
2023/05/21 12:24:37;;;;;;;13.50;6.32;;;19.30;99.90;;;;;;5098436;28;20071;-56
2023/05/21 12:27:09;;;;;;;11.63;6.53;;;19.50;99.90;;;;;;5097964;28;20040;-56
2023/05/21 12:29:42;;;;;;;11.73;6.90;;;19.70;99.90;;;;;;5097119;28;20044;-57
2023/05/21 12:32:11;;;;;;;11.15;6.05;;;19.60;99.90;;;;;;5097837;28;20432;-56
2023/05/21 12:34:50;;;;;;;11.70;7.03;;;19.70;99.90;;;;;;5095806;28;20055;-57
2023/05/21 12:37:21;;;;;;;11.95;6.63;;;19.80;99.90;;;;;;5098095;28;20060;-56
2023/05/21 12:39:48;;;;;;;10.43;6.78;;;19.60;99.90;;;;;;5062219;28;20376;-57
2023/05/21 12:42:14;;;;;;;12.35;7.15;;;19.50;99.90;;;;;;5097197;28;20190;-55
2023/05/21 12:44:45;;;;;;;12.23;6.93;;;19.80;99.90;;;;;;5097760;28;20058;-58